ADDS METAR Data INFO
IDs: Format: Raw Decoded Include TAF

Data at: 1757 UTC 19 Oct 2017

KHYI 191726Z VRB04KT 10SM BKN023 25/18 A3015 RMK AO2 $
KHYI 191708Z 12007KT 080V140 10SM FEW023 SCT032 25/18 A3016 RMK AO2 $
KHYI 191656Z VRB04KT 10SM BKN023 24/18 A3016 RMK AO2 SLPNO T02440183 $
KHYI 191643Z 12005KT 10SM FEW023 SCT035 26/18 A3016 RMK AO2 $
KHYI 191634Z 10004KT 10SM BKN023 BKN028 BKN035 24/18 A3016 RMK AO2 $
KHYI 191556Z 10003KT 10SM BKN032 23/18 A3016 RMK AO2 SLPNO T02330178 $
KHYI 191534Z 07004KT 10SM BKN030 23/17 A3016 RMK AO2 $
KHYI 191456Z 07005KT 10SM OVC026 21/17 A3016 RMK AO2 SLPNO 6//// T02060172 $
KHYI 191454Z 08005KT 10SM OVC026 21/17 A3016 RMK AO2 $
KHYI 191245Z 33005KT 7SM BKN018
KHYI 191147Z 33005KT 10SM CLR RMK FIRST
KHYI 182347Z 13009KT 10SM CLR
KHYI 182245Z 12008KT 10SM CLR
KHYI 182145Z 10006KT 10SM CLR
KHYI 182047Z 16003KT 10SM CLR
KHYI 181955Z COR 14005KT 10SM CLR
KHYI 181846Z 15006KT 10SM CLR
KHYI 181745Z 16004KT 10SM CLR
KHYI 181550Z 14005KT 10SM CLR
KHYI 181455Z 00000KT 10SM CLR
KHYI 181345Z 00000KT 10SM CLR
KHYI 181245Z 28006KT 10SM CLR RMK TEMP/DEW POINT, ALTIMETER MISSING.
KHYI 181151Z 28006KT 10SM CLR RMK TEMP/DEW POINT, ALTIMETER MISSING. FIRST